sensor_id;sensor_type;location;lat;lon;timestamp;pressure;altitude;pressure_sealevel;temperature;humidity
41703;BME280;861;48.808;9.006;2023-02-12T00:01:25;99006.97;;;8.33;66.39
41703;BME280;861;48.808;9.006;2023-02-12T00:03:53;99011.91;;;8.31;66.95
41703;BME280;861;48.808;9.006;2023-02-12T00:06:20;99018.13;;;8.32;66.39
41703;BME280;861;48.808;9.006;2023-02-12T00:08:53;99012.38;;;8.33;66.66
41703;BME280;861;48.808;9.006;2023-02-12T00:11:28;99009.34;;;8.18;66.80
41703;BME280;861;48.808;9.006;2023-02-12T00:13:56;99014.75;;;8.01;67.53
41703;BME280;861;48.808;9.006;2023-02-12T00:16:27;99010.47;;;8.00;68.81
41703;BME280;861;48.808;9.006;2023-02-12T00:18:57;99013.31;;;8.12;67.95
41703;BME280;861;48.808;9.006;2023-02-12T00:21:24;99017.66;;;7.87;68.66
41703;BME280;861;48.808;9.006;2023-02-12T00:23:50;99023.53;;;7.98;67.92
41703;BME280;861;48.808;9.006;2023-02-12T00:26:20;99021.47;;;8.12;67.27
41703;BME280;861;48.808;9.006;2023-02-12T00:28:48;99019.25;;;8.05;67.39
41703;BME280;861;48.808;9.006;2023-02-12T00:31:27;99021.16;;;8.05;67.76
41703;BME280;861;48.808;9.006;2023-02-12T00:33:57;99030.91;;;8.23;67.13
41703;BME280;861;48.808;9.006;2023-02-12T00:36:28;99021.94;;;8.14;68.07
41703;BME280;861;48.808;9.006;2023-02-12T00:38:58;99025.78;;;8.30;66.61
41703;BME280;861;48.808;9.006;2023-02-12T00:41:25;99015.88;;;8.34;66.82
41703;BME280;861;48.808;9.006;2023-02-12T00:43:52;99024.22;;;8.29;66.76
41703;BME280;861;48.808;9.006;2023-02-12T00:46:19;99025.31;;;8.28;66.70
41703;BME280;861;48.808;9.006;2023-02-12T00:48:46;99034.56;;;8.35;66.74
41703;BME280;861;48.808;9.006;2023-02-12T00:51:12;99044.63;;;8.35;66.73
41703;BME280;861;48.808;9.006;2023-02-12T00:53:39;99047.50;;;8.30;66.49
41703;BME280;861;48.808;9.006;2023-02-12T00:56:06;99040.78;;;8.44;66.86
41703;BME280;861;48.808;9.006;2023-02-12T00:58:32;99038.97;;;8.65;66.19
41703;BME280;861;48.808;9.006;2023-02-12T01:00:58;99045.53;;;8.56;66.00
41703;BME280;861;48.808;9.006;2023-02-12T01:03:25;99050.22;;;8.38;66.87
41703;BME280;861;48.808;9.006;2023-02-12T01:05:52;99038.84;;;8.45;66.97
41703;BME280;861;48.808;9.006;2023-02-12T01:08:18;99032.28;;;8.54;66.61
41703;BME280;861;48.808;9.006;2023-02-12T01:10:56;99038.31;;;8.68;66.16
41703;BME280;861;48.808;9.006;2023-02-12T01:13:25;99034.47;;;8.78;65.74
41703;BME280;861;48.808;9.006;2023-02-12T01:16:17;99040.59;;;8.66;65.17
41703;BME280;861;48.808;9.006;2023-02-12T01:18:47;99035.53;;;8.39;66.57
41703;BME280;861;48.808;9.006;2023-02-12T01:21:24;99030.56;;;8.24;66.61
41703;BME280;861;48.808;9.006;2023-02-12T01:23:52;99030.09;;;8.22;67.32
41703;BME280;861;48.808;9.006;2023-02-12T01:26:20;99036.00;;;8.16;67.61
41703;BME280;861;48.808;9.006;2023-02-12T01:28:55;99046.88;;;8.24;67.94
41703;BME280;861;48.808;9.006;2023-02-12T01:31:30;99043.38;;;8.24;67.39
41703;BME280;861;48.808;9.006;2023-02-12T01:34:00;99041.59;;;8.28;67.35
41703;BME280;861;48.808;9.006;2023-02-12T01:36:29;99037.75;;;8.37;67.31
41703;BME280;861;48.808;9.006;2023-02-12T01:38:57;99043.50;;;8.36;66.85
41703;BME280;861;48.808;9.006;2023-02-12T01:41:34;99028.34;;;8.26;67.45
41703;BME280;861;48.808;9.006;2023-02-12T01:44:28;99043.66;;;8.22;67.30
41703;BME280;861;48.808;9.006;2023-02-12T01:47:04;99034.38;;;8.15;67.45
41703;BME280;861;48.808;9.006;2023-02-12T01:49:45;99031.38;;;8.08;68.17
41703;BME280;861;48.808;9.006;2023-02-12T01:52:27;99029.63;;;8.03;68.41
41703;BME280;861;48.808;9.006;2023-02-12T01:55:06;99028.97;;;8.06;68.35
41703;BME280;861;48.808;9.006;2023-02-12T01:57:42;99034.72;;;8.05;68.14
41703;BME280;861;48.808;9.006;2023-02-12T02:00:23;99032.97;;;8.00;67.98
41703;BME280;861;48.808;9.006;2023-02-12T02:02:59;99032.66;;;7.93;67.98
41703;BME280;861;48.808;9.006;2023-02-12T02:06:05;99025.63;;;7.92;68.91
41703;BME280;861;48.808;9.006;2023-02-12T02:08:38;99026.13;;;7.94;68.32
41703;BME280;861;48.808;9.006;2023-02-12T02:11:06;99025.81;;;7.96;68.19
41703;BME280;861;48.808;9.006;2023-02-12T02:13:55;99030.25;;;7.92;68.44
41703;BME280;861;48.808;9.006;2023-02-12T02:17:12;99021.81;;;7.85;69.51
41703;BME280;861;48.808;9.006;2023-02-12T02:30:19;99010.47;;;7.91;68.88
41703;BME280;861;48.808;9.006;2023-02-12T02:33:25;98997.06;;;7.77;69.19
41703;BME280;861;48.808;9.006;2023-02-12T02:39:46;99005.69;;;7.97;68.43
41703;BME280;861;48.808;9.006;2023-02-12T02:43:08;99005.06;;;8.08;68.50
41703;BME280;861;48.808;9.006;2023-02-12T02:45:54;99001.38;;;8.04;68.01
41703;BME280;861;48.808;9.006;2023-02-12T02:49:02;98999.78;;;8.03;68.20
41703;BME280;861;48.808;9.006;2023-02-12T02:51:40;99000.09;;;8.02;68.20
41703;BME280;861;48.808;9.006;2023-02-12T02:54:28;99001.22;;;8.09;68.22
41703;BME280;861;48.808;9.006;2023-02-12T02:57:18;99010.78;;;7.98;68.27
41703;BME280;861;48.808;9.006;2023-02-12T03:00:13;99002.34;;;8.00;69.07
41703;BME280;861;48.808;9.006;2023-02-12T03:02:59;99001.88;;;7.89;69.59
41703;BME280;861;48.808;9.006;2023-02-12T03:05:46;98998.81;;;7.65;69.72
41703;BME280;861;48.808;9.006;2023-02-12T03:08:55;98997.06;;;7.60;70.16
41703;BME280;861;48.808;9.006;2023-02-12T03:11:30;98996.75;;;7.70;69.84
41703;BME280;861;48.808;9.006;2023-02-12T03:14:28;99003.94;;;7.75;69.82
41703;BME280;861;48.808;9.006;2023-02-12T03:17:19;99003.28;;;7.87;69.23
41703;BME280;861;48.808;9.006;2023-02-12T03:20:11;99000.09;;;7.93;69.69
41703;BME280;861;48.808;9.006;2023-02-12T03:23:05;99004.25;;;7.91;69.75
41703;BME280;861;48.808;9.006;2023-02-12T03:26:00;99003.63;;;7.76;70.48
41703;BME280;861;48.808;9.006;2023-02-12T03:28:38;99005.03;;;7.48;71.34
41703;BME280;861;48.808;9.006;2023-02-12T03:31:35;99003.44;;;7.81;69.81
41703;BME280;861;48.808;9.006;2023-02-12T03:34:34;99009.66;;;7.99;68.81
41703;BME280;861;48.808;9.006;2023-02-12T03:37:34;99005.81;;;8.09;68.93
41703;BME280;861;48.808;9.006;2023-02-12T03:43:32;99010.47;;;7.82;69.49
41703;BME280;861;48.808;9.006;2023-02-12T03:47:03;99011.75;;;7.85;69.38
41703;BME280;861;48.808;9.006;2023-02-12T03:50:09;99008.25;;;7.76;69.79
41703;BME280;861;48.808;9.006;2023-02-12T03:52:38;99005.34;;;7.90;69.24
41703;BME280;861;48.808;9.006;2023-02-12T03:55:07;99004.88;;;7.96;69.88
41703;BME280;861;48.808;9.006;2023-02-12T03:57:44;99006.78;;;8.04;69.56
41703;BME280;861;48.808;9.006;2023-02-12T04:00:25;99014.13;;;8.04;69.26
41703;BME280;861;48.808;9.006;2023-02-12T04:02:54;99012.84;;;7.93;69.77
41703;BME280;861;48.808;9.006;2023-02-12T04:05:26;99011.75;;;7.94;69.77
41703;BME280;861;48.808;9.006;2023-02-12T04:07:58;99012.22;;;7.87;69.87
41703;BME280;861;48.808;9.006;2023-02-12T04:10:50;99015.91;;;7.82;70.68
41703;BME280;861;48.808;9.006;2023-02-12T04:14:12;99016.53;;;7.71;69.72
41703;BME280;861;48.808;9.006;2023-02-12T04:17:30;99017.34;;;7.89;69.34
41703;BME280;861;48.808;9.006;2023-02-12T04:20:10;99012.53;;;7.77;69.89
41703;BME280;861;48.808;9.006;2023-02-12T04:22:59;99015.09;;;7.73;70.60
41703;BME280;861;48.808;9.006;2023-02-12T04:26:14;99019.25;;;7.71;70.13
41703;BME280;861;48.808;9.006;2023-02-12T04:29:16;99022.75;;;8.06;68.58
41703;BME280;861;48.808;9.006;2023-02-12T04:32:03;99027.06;;;7.98;69.46
41703;BME280;861;48.808;9.006;2023-02-12T04:35:03;99025.31;;;7.94;69.10
41703;BME280;861;48.808;9.006;2023-02-12T04:38:02;99029.63;;;7.95;69.15
41703;BME280;861;48.808;9.006;2023-02-12T04:40:42;99035.84;;;7.61;70.91
41703;BME280;861;48.808;9.006;2023-02-12T04:43:10;99035.66;;;7.66;70.66
41703;BME280;861;48.808;9.006;2023-02-12T04:45:38;99039.00;;;7.80;70.04
41703;BME280;861;48.808;9.006;2023-02-12T04:48:05;99037.91;;;7.90;70.21
41703;BME280;861;48.808;9.006;2023-02-12T04:50:42;99030.75;;;7.76;69.77
41703;BME280;861;48.808;9.006;2023-02-12T04:53:10;99034.06;;;7.82;69.89
41703;BME280;861;48.808;9.006;2023-02-12T04:55:36;99033.75;;;7.83;70.24
41703;BME280;861;48.808;9.006;2023-02-12T04:58:04;99034.56;;;7.67;70.89
41703;BME280;861;48.808;9.006;2023-02-12T05:00:31;99035.50;;;7.71;70.41
41703;BME280;861;48.808;9.006;2023-02-12T05:02:57;99035.50;;;7.88;69.81
41703;BME280;861;48.808;9.006;2023-02-12T05:05:24;99039.66;;;7.86;70.18
41703;BME280;861;48.808;9.006;2023-02-12T05:07:50;99033.28;;;7.73;70.40
41703;BME280;861;48.808;9.006;2023-02-12T05:10:18;99033.44;;;7.68;70.56
41703;BME280;861;48.808;9.006;2023-02-12T05:12:44;99032.63;;;7.67;71.37
41703;BME280;861;48.808;9.006;2023-02-12T05:15:10;99034.22;;;7.60;71.42
41703;BME280;861;48.808;9.006;2023-02-12T05:17:36;99033.91;;;7.78;70.83
41703;BME280;861;48.808;9.006;2023-02-12T05:20:04;99034.25;;;7.68;70.88
41703;BME280;861;48.808;9.006;2023-02-12T05:22:31;99032.75;;;7.37;71.12
41703;BME280;861;48.808;9.006;2023-02-12T05:24:57;99039.25;;;7.27;71.95
41703;BME280;861;48.808;9.006;2023-02-12T05:27:23;99032.78;;;7.54;71.54
41703;BME280;861;48.808;9.006;2023-02-12T05:29:49;99024.50;;;7.59;71.48
41703;BME280;861;48.808;9.006;2023-02-12T05:32:15;99027.06;;;7.72;70.75
41703;BME280;861;48.808;9.006;2023-02-12T05:34:41;99031.81;;;7.58;71.42
41703;BME280;861;48.808;9.006;2023-02-12T05:37:07;99026.88;;;7.52;71.63
41703;BME280;861;48.808;9.006;2023-02-12T05:39:33;99030.22;;;7.49;70.88
41703;BME280;861;48.808;9.006;2023-02-12T05:42:00;99027.53;;;7.66;70.50
41703;BME280;861;48.808;9.006;2023-02-12T05:44:26;99028.47;;;7.61;71.15
41703;BME280;861;48.808;9.006;2023-02-12T05:46:52;99041.25;;;7.69;70.49
41703;BME280;861;48.808;9.006;2023-02-12T05:49:18;99039.78;;;7.46;71.31
41703;BME280;861;48.808;9.006;2023-02-12T05:51:44;99038.13;;;7.28;72.10
41703;BME280;861;48.808;9.006;2023-02-12T05:54:10;99043.41;;;7.33;72.53
41703;BME280;861;48.808;9.006;2023-02-12T05:56:44;99043.13;;;7.43;71.67
41703;BME280;861;48.808;9.006;2023-02-12T05:59:21;99043.56;;;7.28;72.86
41703;BME280;861;48.808;9.006;2023-02-12T06:01:51;99042.59;;;7.33;72.69
41703;BME280;861;48.808;9.006;2023-02-12T06:04:23;99045.53;;;7.45;72.08
41703;BME280;861;48.808;9.006;2023-02-12T06:06:54;99043.44;;;7.50;72.15
41703;BME280;861;48.808;9.006;2023-02-12T06:09:23;99036.72;;;7.31;72.16
41703;BME280;861;48.808;9.006;2023-02-12T06:11:50;99035.34;;;7.59;71.76
41703;BME280;861;48.808;9.006;2023-02-12T06:14:19;99034.53;;;7.58;71.29
41703;BME280;861;48.808;9.006;2023-02-12T06:16:49;99038.81;;;7.42;71.78
41703;BME280;861;48.808;9.006;2023-02-12T06:19:18;99039.94;;;7.41;71.64
41703;BME280;861;48.808;9.006;2023-02-12T06:21:46;99032.59;;;7.42;72.30
41703;BME280;861;48.808;9.006;2023-02-12T06:24:15;99030.72;;;7.59;72.32
41703;BME280;861;48.808;9.006;2023-02-12T06:26:42;99031.19;;;7.78;71.08
41703;BME280;861;48.808;9.006;2023-02-12T06:29:09;99039.66;;;7.68;71.80
41703;BME280;861;48.808;9.006;2023-02-12T06:31:37;99046.66;;;7.69;71.28
41703;BME280;861;48.808;9.006;2023-02-12T06:34:10;99048.41;;;7.57;72.14
41703;BME280;861;48.808;9.006;2023-02-12T06:36:41;99045.72;;;7.74;71.78
41703;BME280;861;48.808;9.006;2023-02-12T06:39:13;99052.56;;;7.63;71.65
41703;BME280;861;48.808;9.006;2023-02-12T06:41:41;99048.44;;;7.74;71.08
41703;BME280;861;48.808;9.006;2023-02-12T06:44:11;99055.16;;;7.76;71.59
41703;BME280;861;48.808;9.006;2023-02-12T06:46:38;99054.97;;;7.90;70.14
41703;BME280;861;48.808;9.006;2023-02-12T06:49:04;99062.66;;;7.79;70.49
41703;BME280;861;48.808;9.006;2023-02-12T06:51:30;99055.47;;;7.83;70.78
41703;BME280;861;48.808;9.006;2023-02-12T06:53:57;99054.69;;;7.83;71.31
41703;BME280;861;48.808;9.006;2023-02-12T06:56:25;99058.66;;;7.86;70.53
41703;BME280;861;48.808;9.006;2023-02-12T06:58:58;99063.13;;;8.07;70.08
41703;BME280;861;48.808;9.006;2023-02-12T07:01:28;99068.91;;;8.23;70.12
41703;BME280;861;48.808;9.006;2023-02-12T07:04:01;99075.13;;;8.49;69.85
41703;BME280;861;48.808;9.006;2023-02-12T07:06:32;99066.78;;;8.71;68.64
41703;BME280;861;48.808;9.006;2023-02-12T07:09:03;99074.16;;;8.45;69.35
41703;BME280;861;48.808;9.006;2023-02-12T07:11:35;99074.63;;;8.55;70.19
41703;BME280;861;48.808;9.006;2023-02-12T07:14:01;99067.97;;;8.99;69.41
41703;BME280;861;48.808;9.006;2023-02-12T07:16:28;99066.66;;;9.05;68.05
41703;BME280;861;48.808;9.006;2023-02-12T07:18:55;99072.81;;;8.85;68.57
41703;BME280;861;48.808;9.006;2023-02-12T07:21:21;99077.78;;;8.66;68.87
41703;BME280;861;48.808;9.006;2023-02-12T07:23:52;99077.31;;;8.64;69.72
41703;BME280;861;48.808;9.006;2023-02-12T07:26:21;99076.84;;;8.53;69.91
41703;BME280;861;48.808;9.006;2023-02-12T07:28:50;99075.28;;;8.35;70.74
41703;BME280;861;48.808;9.006;2023-02-12T07:31:21;99075.25;;;8.01;71.27
41703;BME280;861;48.808;9.006;2023-02-12T07:33:53;99079.56;;;8.11;71.10
41703;BME280;861;48.808;9.006;2023-02-12T07:36:21;99071.63;;;8.31;70.59
41703;BME280;861;48.808;9.006;2023-02-12T07:38:49;99070.66;;;8.44;70.64
41703;BME280;861;48.808;9.006;2023-02-12T07:41:26;99067.78;;;8.24;71.19
41703;BME280;861;48.808;9.006;2023-02-12T07:44:05;99075.56;;;8.17;72.09
41703;BME280;861;48.808;9.006;2023-02-12T07:46:39;99069.34;;;8.08;72.57
41703;BME280;861;48.808;9.006;2023-02-12T07:49:18;99071.13;;;8.21;72.27
41703;BME280;861;48.808;9.006;2023-02-12T07:51:49;99075.47;;;8.30;71.50
41703;BME280;861;48.808;9.006;2023-02-12T07:54:16;99069.53;;;8.45;70.84
41703;BME280;861;48.808;9.006;2023-02-12T07:56:43;99075.91;;;8.41;71.18
41703;BME280;861;48.808;9.006;2023-02-12T07:59:16;99067.78;;;8.41;71.45
41703;BME280;861;48.808;9.006;2023-02-12T08:01:52;99065.19;;;8.53;71.07
41703;BME280;861;48.808;9.006;2023-02-12T08:04:24;99070.78;;;8.65;70.27
41703;BME280;861;48.808;9.006;2023-02-12T08:06:54;99078.63;;;8.32;71.75
41703;BME280;861;48.808;9.006;2023-02-12T08:09:27;99068.88;;;8.48;71.37
41703;BME280;861;48.808;9.006;2023-02-12T08:11:55;99066.44;;;8.72;70.30
41703;BME280;861;48.808;9.006;2023-02-12T08:14:22;99064.38;;;8.69;69.99
41703;BME280;861;48.808;9.006;2023-02-12T08:16:50;99057.47;;;8.80;70.06
41703;BME280;861;48.808;9.006;2023-02-12T08:19:18;99059.38;;;8.88;70.12
41703;BME280;861;48.808;9.006;2023-02-12T08:21:44;99061.50;;;8.66;70.82
41703;BME280;861;48.808;9.006;2023-02-12T08:24:12;99060.38;;;8.67;70.92
41703;BME280;861;48.808;9.006;2023-02-12T08:26:39;99061.59;;;8.86;70.44
41703;BME280;861;48.808;9.006;2023-02-12T08:29:15;99051.63;;;9.07;69.85
41703;BME280;861;48.808;9.006;2023-02-12T08:31:48;99058.50;;;9.05;69.93
41703;BME280;861;48.808;9.006;2023-02-12T08:34:31;99055.44;;;9.15;69.65
41703;BME280;861;48.808;9.006;2023-02-12T08:37:00;99061.03;;;9.18;69.29
41703;BME280;861;48.808;9.006;2023-02-12T08:39:29;99062.09;;;9.26;68.66
41703;BME280;861;48.808;9.006;2023-02-12T08:41:58;99065.88;;;9.33;68.74
41703;BME280;861;48.808;9.006;2023-02-12T08:44:28;99069.09;;;9.36;68.41
41703;BME280;861;48.808;9.006;2023-02-12T08:46:54;99076.00;;;9.24;69.11
41703;BME280;861;48.808;9.006;2023-02-12T08:49:26;99066.97;;;9.12;70.19
41703;BME280;861;48.808;9.006;2023-02-12T08:51:56;99071.75;;;9.06;70.33
41703;BME280;861;48.808;9.006;2023-02-12T08:54:28;99073.31;;;9.16;69.63
41703;BME280;861;48.808;9.006;2023-02-12T08:57:00;99073.91;;;9.30;69.08
41703;BME280;861;48.808;9.006;2023-02-12T08:59:29;99071.03;;;9.26;69.10
41703;BME280;861;48.808;9.006;2023-02-12T09:01:56;99074.72;;;9.22;69.30
41703;BME280;861;48.808;9.006;2023-02-12T09:04:26;99071.88;;;9.18;69.42
41703;BME280;861;48.808;9.006;2023-02-12T09:06:54;99075.88;;;9.21;69.26
41703;BME280;861;48.808;9.006;2023-02-12T09:09:21;99074.47;;;9.15;69.09
41703;BME280;861;48.808;9.006;2023-02-12T09:11:48;99067.34;;;9.31;68.80
41703;BME280;861;48.808;9.006;2023-02-12T09:14:17;99081.31;;;9.21;68.84
41703;BME280;861;48.808;9.006;2023-02-12T09:16:49;99084.16;;;9.24;69.12
41703;BME280;861;48.808;9.006;2023-02-12T09:19:18;99087.13;;;9.40;68.88
41703;BME280;861;48.808;9.006;2023-02-12T09:21:44;99080.75;;;9.36;68.88
41703;BME280;861;48.808;9.006;2023-02-12T09:24:10;99084.44;;;9.31;68.86
41703;BME280;861;48.808;9.006;2023-02-12T09:26:38;99083.75;;;9.43;68.53
41703;BME280;861;48.808;9.006;2023-02-12T09:29:04;99079.78;;;9.41;68.70
41703;BME280;861;48.808;9.006;2023-02-12T09:31:32;99087.31;;;9.35;69.04
41703;BME280;861;48.808;9.006;2023-02-12T09:34:04;99082.06;;;9.30;68.75
41703;BME280;861;48.808;9.006;2023-02-12T09:36:33;99087.94;;;9.41;68.66
41703;BME280;861;48.808;9.006;2023-02-12T09:39:00;99090.75;;;9.53;67.79
41703;BME280;861;48.808;9.006;2023-02-12T09:42:12;99093.06;;;9.42;68.35
41703;BME280;861;48.808;9.006;2023-02-12T09:45:21;99094.94;;;9.50;68.08
41703;BME280;861;48.808;9.006;2023-02-12T09:51:07;99093.28;;;9.58;68.13
41703;BME280;861;48.808;9.006;2023-02-12T09:53:45;99092.22;;;9.50;68.00
41703;BME280;861;48.808;9.006;2023-02-12T09:56:22;99088.84;;;9.53;68.56
41703;BME280;861;48.808;9.006;2023-02-12T09:58:59;99096.28;;;9.36;68.90
41703;BME280;861;48.808;9.006;2023-02-12T10:01:28;99093.78;;;9.51;68.58
41703;BME280;861;48.808;9.006;2023-02-12T10:03:56;99087.03;;;9.57;68.75
41703;BME280;861;48.808;9.006;2023-02-12T10:06:50;99086.59;;;9.76;68.86
41703;BME280;861;48.808;9.006;2023-02-12T10:13:06;99086.03;;;9.91;68.71
41703;BME280;861;48.808;9.006;2023-02-12T10:16:40;99089.47;;;9.79;69.07
41703;BME280;861;48.808;9.006;2023-02-12T10:26:18;99074.31;;;9.99;68.26
41703;BME280;861;48.808;9.006;2023-02-12T10:28:48;99077.06;;;9.90;70.29
41703;BME280;861;48.808;9.006;2023-02-12T10:31:34;99080.38;;;9.75;69.72
41703;BME280;861;48.808;9.006;2023-02-12T10:34:27;99079.44;;;9.71;70.39
41703;BME280;861;48.808;9.006;2023-02-12T10:37:59;99074.63;;;9.97;69.37
41703;BME280;861;48.808;9.006;2023-02-12T10:40:45;99075.06;;;9.99;69.29
41703;BME280;861;48.808;9.006;2023-02-12T10:43:13;99074.53;;;9.85;69.67
41703;BME280;861;48.808;9.006;2023-02-12T10:45:42;99073.06;;;9.67;70.40
41703;BME280;861;48.808;9.006;2023-02-12T10:48:30;99075.88;;;10.08;69.01
41703;BME280;861;48.808;9.006;2023-02-12T10:52:04;99073.31;;;10.24;68.27
41703;BME280;861;48.808;9.006;2023-02-12T10:54:51;99072.72;;;10.18;68.51
41703;BME280;861;48.808;9.006;2023-02-12T10:57:28;99072.38;;;10.20;68.46
41703;BME280;861;48.808;9.006;2023-02-12T11:00:35;99068.91;;;9.90;69.19
41703;BME280;861;48.808;9.006;2023-02-12T11:05:43;99065.47;;;10.02;69.90
41703;BME280;861;48.808;9.006;2023-02-12T11:08:33;99063.84;;;10.09;69.52
41703;BME280;861;48.808;9.006;2023-02-12T11:11:36;99060.06;;;10.22;68.47
41703;BME280;861;48.808;9.006;2023-02-12T11:14:18;99052.88;;;10.18;68.72
41703;BME280;861;48.808;9.006;2023-02-12T11:16:59;99059.41;;;10.37;68.05
41703;BME280;861;48.808;9.006;2023-02-12T11:19:31;99056.00;;;10.28;68.90
41703;BME280;861;48.808;9.006;2023-02-12T11:22:14;99052.09;;;10.17;69.42
41703;BME280;861;48.808;9.006;2023-02-12T11:28:37;99052.63;;;10.02;69.00
41703;BME280;861;48.808;9.006;2023-02-12T11:31:29;99062.41;;;10.03;69.81
41703;BME280;861;48.808;9.006;2023-02-12T11:34:15;99052.41;;;10.16;69.15
41703;BME280;861;48.808;9.006;2023-02-12T11:36:53;99047.72;;;10.37;68.51
41703;BME280;861;48.808;9.006;2023-02-12T11:39:33;99046.75;;;10.41;68.60
41703;BME280;861;48.808;9.006;2023-02-12T11:42:23;99044.44;;;10.31;69.22
41703;BME280;861;48.808;9.006;2023-02-12T11:44:56;99041.78;;;10.55;68.15
41703;BME280;861;48.808;9.006;2023-02-12T11:47:35;99047.09;;;10.19;68.97
41703;BME280;861;48.808;9.006;2023-02-12T11:50:27;99041.56;;;10.28;68.87
41703;BME280;861;48.808;9.006;2023-02-12T11:53:08;99044.16;;;10.24;69.31
41703;BME280;861;48.808;9.006;2023-02-12T11:55:40;99045.44;;;10.59;68.77
41703;BME280;861;48.808;9.006;2023-02-12T11:58:13;99039.78;;;10.64;67.66
41703;BME280;861;48.808;9.006;2023-02-12T12:01:07;99048.25;;;10.51;68.35
41703;BME280;861;48.808;9.006;2023-02-12T12:06:45;99039.28;;;10.50;68.77
41703;BME280;861;48.808;9.006;2023-02-12T12:09:35;99037.22;;;10.47;68.35
41703;BME280;861;48.808;9.006;2023-02-12T12:12:31;99037.16;;;10.35;68.91
41703;BME280;861;48.808;9.006;2023-02-12T12:15:19;99032.88;;;10.46;69.04
41703;BME280;861;48.808;9.006;2023-02-12T12:21:51;99033.63;;;10.55;68.11
41703;BME280;861;48.808;9.006;2023-02-12T12:31:00;99028.94;;;10.89;66.82
41703;BME280;861;48.808;9.006;2023-02-12T12:33:50;99030.03;;;10.88;67.74
41703;BME280;861;48.808;9.006;2023-02-12T12:56:09;99004.06;;;11.50;65.82
41703;BME280;861;48.808;9.006;2023-02-12T13:10:35;98978.06;;;12.63;63.31
41703;BME280;861;48.808;9.006;2023-02-12T13:13:36;98979.34;;;13.12;62.22
41703;BME280;861;48.808;9.006;2023-02-12T13:16:48;98976.38;;;13.36;59.90
41703;BME280;861;48.808;9.006;2023-02-12T13:22:59;98965.41;;;13.36;60.76
41703;BME280;861;48.808;9.006;2023-02-12T13:26:01;98966.94;;;13.88;59.61
41703;BME280;861;48.808;9.006;2023-02-12T13:28:55;98964.41;;;14.17;59.00
41703;BME280;861;48.808;9.006;2023-02-12T13:31:30;98957.50;;;14.23;58.19
41703;BME280;861;48.808;9.006;2023-02-12T13:34:13;98963.97;;;14.15;58.18
41703;BME280;861;48.808;9.006;2023-02-12T13:36:44;98953.25;;;14.45;58.57
41703;BME280;861;48.808;9.006;2023-02-12T13:39:36;98960.09;;;14.16;57.34
41703;BME280;861;48.808;9.006;2023-02-12T13:47:59;98956.47;;;14.50;57.40
41703;BME280;861;48.808;9.006;2023-02-12T13:51:01;98950.09;;;14.65;56.74
41703;BME280;861;48.808;9.006;2023-02-12T13:57:16;98942.59;;;14.85;57.67
41703;BME280;861;48.808;9.006;2023-02-12T13:59:55;98947.69;;;14.86;56.51
41703;BME280;861;48.808;9.006;2023-02-12T14:05:26;98939.41;;;15.31;54.86
41703;BME280;861;48.808;9.006;2023-02-12T14:08:00;98937.03;;;15.04;55.53
41703;BME280;861;48.808;9.006;2023-02-12T14:10:40;98937.03;;;15.56;55.85
41703;BME280;861;48.808;9.006;2023-02-12T14:13:21;98924.63;;;15.66;55.16
41703;BME280;861;48.808;9.006;2023-02-12T14:15:56;98926.38;;;15.81;54.08
41703;BME280;861;48.808;9.006;2023-02-12T14:18:36;98921.56;;;15.71;54.80
41703;BME280;861;48.808;9.006;2023-02-12T14:23:53;98923.34;;;15.89;54.11
41703;BME280;861;48.808;9.006;2023-02-12T14:26:40;98917.44;;;15.87;54.04
41703;BME280;861;48.808;9.006;2023-02-12T14:29:18;98917.06;;;15.89;54.32
41703;BME280;861;48.808;9.006;2023-02-12T14:31:49;98911.88;;;15.84;53.50
41703;BME280;861;48.808;9.006;2023-02-12T14:36:45;98921.72;;;16.18;53.90
41703;BME280;861;48.808;9.006;2023-02-12T14:44:57;98917.19;;;16.36;52.27
41703;BME280;861;48.808;9.006;2023-02-12T14:50:13;98918.81;;;16.40;53.21
41703;BME280;861;48.808;9.006;2023-02-12T14:53:33;98915.41;;;16.50;51.66
41703;BME280;861;48.808;9.006;2023-02-12T14:56:05;98909.66;;;16.29;51.98
41703;BME280;861;48.808;9.006;2023-02-12T14:58:37;98910.41;;;16.26;52.55
41703;BME280;861;48.808;9.006;2023-02-12T15:01:05;98913.69;;;16.39;52.95
41703;BME280;861;48.808;9.006;2023-02-12T15:03:53;98907.25;;;16.57;52.33
41703;BME280;861;48.808;9.006;2023-02-12T15:06:35;98911.84;;;16.46;52.45
41703;BME280;861;48.808;9.006;2023-02-12T15:09:32;98918.66;;;16.26;53.07
41703;BME280;861;48.808;9.006;2023-02-12T15:12:31;98913.47;;;16.51;52.43
41703;BME280;861;48.808;9.006;2023-02-12T15:15:31;98909.63;;;16.59;52.17
41703;BME280;861;48.808;9.006;2023-02-12T15:18:58;98905.25;;;16.54;52.28
41703;BME280;861;48.808;9.006;2023-02-12T15:21:34;98902.94;;;16.60;51.48
41703;BME280;861;48.808;9.006;2023-02-12T15:24:10;98907.13;;;16.47;52.53
41703;BME280;861;48.808;9.006;2023-02-12T15:26:47;98910.03;;;16.64;51.51
41703;BME280;861;48.808;9.006;2023-02-12T15:29:32;98895.13;;;16.65;51.42
41703;BME280;861;48.808;9.006;2023-02-12T15:32:21;98898.03;;;16.43;52.18
41703;BME280;861;48.808;9.006;2023-02-12T15:34:54;98900.16;;;16.56;52.22
41703;BME280;861;48.808;9.006;2023-02-12T15:37:28;98900.91;;;16.53;52.02
41703;BME280;861;48.808;9.006;2023-02-12T15:40:01;98899.56;;;16.40;51.32
41703;BME280;861;48.808;9.006;2023-02-12T15:42:37;98896.47;;;16.42;52.96
41703;BME280;861;48.808;9.006;2023-02-12T15:45:24;98899.94;;;16.35;52.48
41703;BME280;861;48.808;9.006;2023-02-12T15:48:17;98904.44;;;16.17;52.85
41703;BME280;861;48.808;9.006;2023-02-12T15:50:55;98898.84;;;16.07;53.24
41703;BME280;861;48.808;9.006;2023-02-12T15:53:30;98889.84;;;15.77;53.56
41703;BME280;861;48.808;9.006;2023-02-12T15:55:59;98895.28;;;15.44;53.86
41703;BME280;861;48.808;9.006;2023-02-12T15:58:37;98890.25;;;15.49;54.24
41703;BME280;861;48.808;9.006;2023-02-12T16:01:25;98894.28;;;15.29;54.13
41703;BME280;861;48.808;9.006;2023-02-12T16:03:59;98894.19;;;15.22;54.63
41703;BME280;861;48.808;9.006;2023-02-12T16:06:34;98904.91;;;14.82;55.15
41703;BME280;861;48.808;9.006;2023-02-12T16:09:16;98898.59;;;15.04;54.50
41703;BME280;861;48.808;9.006;2023-02-12T16:11:55;98893.03;;;14.97;55.03
41703;BME280;861;48.808;9.006;2023-02-12T16:14:50;98889.13;;;14.98;54.99
41703;BME280;861;48.808;9.006;2023-02-12T16:17:30;98885.63;;;15.01;54.47
41703;BME280;861;48.808;9.006;2023-02-12T16:22:47;98897.72;;;14.74;54.57